Time;durP1;ratioP1;P1;durP2;ratioP2;P2;SDS_P1;SDS_P2;PMS_P1;PMS_P2;Temp;Humidity;BMP_temperature;BMP_pressure;BME280_temperature;BME280_humidity;BME280_pressure;Samples;Min_cycle;Max_cycle;Signal;HPM_P1;HPM_P2
2023/04/16 00:01:48;;;;;;;10.80;2.92;;;;;;;11.83;65.26;102434.97;5007201;28;20096;-45
2023/04/16 00:04:13;;;;;;;10.60;2.90;;;;;;;11.60;65.42;102436.75;5003519;28;20053;-44
2023/04/16 00:06:38;;;;;;;10.55;3.13;;;;;;;11.52;66.66;102437.34;5006481;28;20032;-43
2023/04/16 00:09:04;;;;;;;11.63;3.03;;;;;;;11.44;66.10;102430.94;5002863;28;20125;-43
2023/04/16 00:11:29;;;;;;;8.95;2.60;;;;;;;11.77;65.78;102430.38;5006486;28;20049;-43
2023/04/16 00:13:54;;;;;;;10.45;2.60;;;;;;;11.29;66.89;102431.28;5006672;28;20026;-43
2023/04/16 00:16:19;;;;;;;11.32;2.28;;;;;;;11.53;66.32;102437.38;5004813;28;20041;-46
2023/04/16 00:18:45;;;;;;;7.95;2.20;;;;;;;11.70;65.45;102445.78;5008251;28;20496;-46
2023/04/16 00:21:11;;;;;;;7.68;2.33;;;;;;;11.82;64.85;102437.50;5002362;28;20041;-45
2023/04/16 00:23:36;;;;;;;11.85;2.70;;;;;;;11.50;66.16;102432.06;5004317;28;20038;-45
2023/04/16 00:26:02;;;;;;;9.55;2.47;;;;;;;11.78;65.04;102437.41;5004676;28;20030;-44
2023/04/16 00:28:28;;;;;;;8.30;2.30;;;;;;;11.66;65.05;102441.28;5001565;28;20030;-44
2023/04/16 00:30:54;;;;;;;9.13;2.40;;;;;;;11.70;65.17;102435.34;5004741;28;20030;-43
2023/04/16 00:33:19;;;;;;;11.73;2.47;;;;;;;11.57;65.70;102431.44;5000314;28;20042;-46
2023/04/16 00:35:46;;;;;;;6.75;2.35;;;;;;;11.60;65.32;102434.13;5003702;28;20033;-44
2023/04/16 00:38:12;;;;;;;8.07;2.55;;;;;;;11.58;65.35;102422.75;5000121;28;20034;-42
2023/04/16 00:40:37;;;;;;;10.90;2.63;;;;;;;11.60;65.15;102430.63;5004190;28;20048;-43
2023/04/16 00:43:02;;;;;;;10.77;2.67;;;;;;;11.62;65.60;102426.34;5004091;28;20117;-43
2023/04/16 00:45:28;;;;;;;7.80;2.55;;;;;;;11.73;65.13;102420.69;5001593;28;20064;-43
2023/04/16 00:47:55;;;;;;;11.00;2.25;;;;;;;11.56;65.40;102413.09;5003884;28;20554;-44
2023/04/16 00:50:20;;;;;;;8.80;2.72;;;;;;;11.65;65.48;102421.22;5000627;28;20408;-42
2023/04/16 00:52:47;;;;;;;9.32;2.70;;;;;;;11.82;64.86;102414.00;5004403;28;20030;-44
2023/04/16 00:55:14;;;;;;;8.80;2.83;;;;;;;11.75;65.30;102420.75;5000647;28;20040;-44
2023/04/16 00:57:39;;;;;;;11.85;3.10;;;;;;;11.53;65.85;102419.09;5003898;28;20109;-44
2023/04/16 01:00:05;;;;;;;13.43;3.08;;;;;;;11.63;65.70;102425.53;5000104;28;20057;-42
2023/04/16 01:02:32;;;;;;;11.00;3.10;;;;;;;11.36;67.03;102425.47;5003647;28;20092;-45
2023/04/16 01:04:59;;;;;;;11.73;2.92;;;;;;;11.46;66.64;102429.28;5003889;28;20049;-43
2023/04/16 01:07:24;;;;;;;12.50;2.75;;;;;;;11.50;66.02;102425.94;5000427;28;20045;-47
2023/04/16 01:09:50;;;;;;;7.05;2.67;;;;;;;11.71;65.72;102429.28;5004200;28;20092;-45
2023/04/16 01:12:15;;;;;;;9.10;2.40;;;;;;;11.38;66.73;102426.41;5001871;28;20485;-45
2023/04/16 01:14:40;;;;;;;10.98;2.70;;;;;;;11.90;65.30;102429.06;5004797;28;20400;-45
2023/04/16 01:17:06;;;;;;;11.90;2.75;;;;;;;11.31;67.17;102424.41;5000963;28;20451;-43
2023/04/16 01:19:31;;;;;;;9.57;2.55;;;;;;;11.28;67.59;102438.22;5004266;28;20026;-44
2023/04/16 01:21:57;;;;;;;8.50;2.75;;;;;;;11.44;66.86;102429.22;5004238;28;20559;-45
2023/04/16 01:24:22;;;;;;;11.50;2.70;;;;;;;11.04;67.96;102431.28;5000077;28;21138;-46
2023/04/16 01:26:48;;;;;;;7.82;2.70;;;;;;;11.60;66.10;102425.41;5003964;28;20026;-44
2023/04/16 01:29:13;;;;;;;10.18;3.00;;;;;;;11.77;65.53;102427.78;5005842;28;20549;-47
2023/04/16 01:31:38;;;;;;;10.73;2.70;;;;;;;11.71;65.21;102432.75;5007226;28;20038;-44
2023/04/16 01:34:04;;;;;;;10.18;3.05;;;;;;;11.52;66.16;102429.50;5000539;28;20038;-44
2023/04/16 01:36:29;;;;;;;10.93;3.28;;;;;;;11.33;67.04;102430.59;5003113;28;20037;-48
2023/04/16 01:38:55;;;;;;;9.13;3.00;;;;;;;11.08;68.00;102428.81;5004130;28;20172;-46
2023/04/16 01:41:20;;;;;;;13.40;3.40;;;;;;;11.30;67.32;102439.19;5000686;28;20484;-44
2023/04/16 01:43:45;;;;;;;15.07;3.50;;;;;;;11.23;66.92;102433.69;5004355;28;20501;-44
2023/04/16 01:46:28;;;;;;;10.73;3.25;;;;;;;11.29;66.93;102439.13;4999223;28;20049;-44
2023/04/16 01:48:54;;;;;;;10.95;3.20;;;;;;;11.22;67.06;102431.94;5002794;28;20107;-44
2023/04/16 01:51:20;;;;;;;10.85;3.42;;;;;;;11.16;67.53;102435.19;4999834;28;20512;-45
2023/04/16 01:53:45;;;;;;;8.35;3.50;;;;;;;11.26;67.34;102439.03;5004125;28;20547;-42
2023/04/16 01:56:11;;;;;;;9.82;3.30;;;;;;;11.38;66.89;102444.69;4999798;28;20050;-45
2023/04/16 01:58:36;;;;;;;11.50;3.67;;;;;;;11.23;66.77;102439.81;5003018;28;20030;-43
2023/04/16 02:01:04;;;;;;;12.65;3.40;;;;;;;11.44;67.10;102447.50;5003072;28;20633;-42
2023/04/16 02:03:30;;;;;;;8.85;3.10;;;;;;;11.43;67.06;102442.22;5000108;28;20053;-44
2023/04/16 02:05:55;;;;;;;8.85;3.20;;;;;;;11.11;68.51;102438.47;5003795;28;20492;-43
2023/04/16 02:08:20;;;;;;;9.45;3.50;;;;;;;11.50;67.48;102446.84;4999788;28;20361;-42
2023/04/16 02:10:47;;;;;;;11.82;3.45;;;;;;;11.23;68.61;102436.28;5003918;28;20041;-46
2023/04/16 02:13:14;;;;;;;10.90;3.25;;;;;;;11.30;68.18;102440.91;5003510;28;20776;-45
2023/04/16 02:15:43;;;;;;;8.55;3.50;;;;;;;10.92;69.91;102450.84;5009339;28;20034;-46
2023/04/16 02:18:09;;;;;;;11.02;3.58;;;;;;;10.85;69.78;102448.88;5005157;28;20037;-44
2023/04/16 02:20:35;;;;;;;11.40;3.25;;;;;;;11.32;68.70;102441.84;5007482;28;20396;-46
2023/04/16 02:23:00;;;;;;;12.02;3.72;;;;;;;11.03;69.80;102447.75;5006145;28;20138;-44
2023/04/16 02:25:26;;;;;;;11.23;3.55;;;;;;;11.35;68.86;102453.28;5003507;28;20455;-46
2023/04/16 02:27:51;;;;;;;12.70;3.90;;;;;;;11.15;69.28;102449.09;5007769;28;20034;-46
2023/04/16 02:30:16;;;;;;;11.95;3.67;;;;;;;11.32;68.73;102452.31;5006442;28;20033;-43
2023/04/16 02:32:42;;;;;;;10.75;4.25;;;;;;;10.89;70.32;102455.97;5009744;28;20026;-43
2023/04/16 02:35:07;;;;;;;11.55;4.15;;;;;;;11.24;69.80;102453.75;5006332;28;20042;-43
2023/04/16 02:37:32;;;;;;;15.40;4.30;;;;;;;11.14;70.50;102449.03;5008634;28;20056;-43
2023/04/16 02:39:58;;;;;;;14.48;4.22;;;;;;;11.12;69.61;102459.41;5008862;28;20032;-42
2023/04/16 02:42:23;;;;;;;10.45;4.40;;;;;;;10.92;70.53;102460.41;5005170;28;22767;-45
2023/04/16 02:44:48;;;;;;;12.05;4.57;;;;;;;10.89;71.81;102461.19;5006725;28;20037;-46
2023/04/16 02:47:14;;;;;;;13.20;4.03;;;;;;;10.75;71.37;102465.00;5004267;28;20081;-42
2023/04/16 02:49:39;;;;;;;12.00;4.15;;;;;;;10.93;71.26;102470.00;5007046;28;20136;-42
2023/04/16 02:52:04;;;;;;;12.57;3.70;;;;;;;10.80;71.42;102463.44;5002935;28;20090;-47
2023/04/16 02:54:30;;;;;;;11.38;3.63;;;;;;;10.73;72.13;102463.16;5006003;28;20077;-44
2023/04/16 02:56:55;;;;;;;11.77;3.45;;;;;;;11.02;71.34;102466.88;5007112;28;20053;-44
2023/04/16 02:59:21;;;;;;;10.48;3.95;;;;;;;10.90;71.14;102465.59;5003371;28;20046;-44
2023/04/16 03:01:46;;;;;;;14.32;3.92;;;;;;;10.65;72.28;102455.06;5006909;28;20400;-44
2023/04/16 03:04:11;;;;;;;11.95;4.30;;;;;;;10.86;71.65;102452.34;5003369;28;20068;-42
2023/04/16 03:06:36;;;;;;;13.80;3.70;;;;;;;10.78;71.84;102459.00;5006807;28;20060;-43
2023/04/16 03:09:02;;;;;;;13.35;4.05;;;;;;;10.83;71.64;102460.06;5005967;28;20455;-43
2023/04/16 03:11:27;;;;;;;9.68;3.75;;;;;;;10.89;71.81;102460.31;5001774;28;20037;-42
2023/04/16 03:13:52;;;;;;;12.05;4.50;;;;;;;11.09;71.51;102468.88;5005257;28;20558;-45
2023/04/16 03:16:18;;;;;;;8.68;3.83;;;;;;;10.95;70.95;102461.41;5002041;28;20041;-43
2023/04/16 03:18:43;;;;;;;12.80;4.05;;;;;;;10.84;72.10;102456.63;5006099;28;20535;-43
2023/04/16 03:21:08;;;;;;;10.13;3.75;;;;;;;10.81;72.18;102461.72;5002907;28;20396;-44
2023/04/16 03:23:35;;;;;;;13.90;4.28;;;;;;;10.72;72.61;102470.09;5004933;28;20045;-44
2023/04/16 03:26:00;;;;;;;14.15;4.03;;;;;;;10.68;73.21;102480.34;5006164;28;20373;-44
2023/04/16 03:28:25;;;;;;;12.60;4.05;;;;;;;10.70;73.22;102471.75;5001466;28;20037;-43
2023/04/16 03:30:51;;;;;;;13.68;4.60;;;;;;;10.54;74.43;102469.41;5005199;28;20480;-47
2023/04/16 03:33:17;;;;;;;13.80;3.80;;;;;;;10.98;73.09;102464.13;5002461;28;20111;-46
2023/04/16 03:35:43;;;;;;;18.45;3.80;;;;;;;10.78;73.60;102467.72;5005951;28;20516;-43
2023/04/16 03:38:08;;;;;;;11.80;3.70;;;;;;;10.94;73.49;102464.84;5001773;28;20081;-44
2023/04/16 03:40:33;;;;;;;10.63;3.25;;;;;;;10.81;73.54;102469.53;5005691;28;20045;-44
2023/04/16 03:42:58;;;;;;;10.15;3.40;;;;;;;10.97;73.57;102469.31;5007575;28;20464;-44
2023/04/16 03:45:24;;;;;;;14.00;3.75;;;;;;;11.08;72.38;102462.75;5002510;28;20038;-43
2023/04/16 03:47:51;;;;;;;10.73;3.15;;;;;;;11.38;71.99;102460.34;5004318;28;20117;-42
2023/04/16 03:50:18;;;;;;;10.65;3.35;;;;;;;11.51;71.41;102469.50;5002036;28;20034;-43
2023/04/16 03:52:43;;;;;;;14.88;3.60;;;;;;;11.09;72.17;102466.25;5005143;28;20029;-42
2023/04/16 03:55:09;;;;;;;13.65;3.03;;;;;;;11.42;71.81;102464.84;5000934;28;20520;-42
2023/04/16 03:57:34;;;;;;;11.82;3.22;;;;;;;11.33;72.24;102470.66;5004952;28;20050;-44
2023/04/16 03:59:59;;;;;;;9.93;3.20;;;;;;;11.48;71.75;102465.06;5007610;28;20547;-42
2023/04/16 04:02:25;;;;;;;11.73;3.55;;;;;;;11.22;72.90;102463.25;5004778;28;20030;-45
2023/04/16 04:04:51;;;;;;;10.18;3.35;;;;;;;11.04;73.14;102468.69;5007694;28;20053;-42
2023/04/16 04:07:16;;;;;;;8.65;2.90;;;;;;;10.94;73.97;102466.56;5004449;28;20050;-47
2023/04/16 04:09:42;;;;;;;11.98;3.47;;;;;;;10.97;73.95;102464.09;5006898;28;20113;-44
2023/04/16 04:12:08;;;;;;;11.10;3.13;;;;;;;10.81;74.43;102461.72;5001941;28;20045;-46
2023/04/16 04:14:38;;;;;;;9.05;3.13;;;;;;;11.07;73.82;102463.59;5004901;28;20041;-42
2023/04/16 04:17:04;;;;;;;10.27;3.03;;;;;;;11.11;73.48;102464.56;5001744;28;20031;-52
2023/04/16 04:19:29;;;;;;;12.25;2.90;;;;;;;10.95;74.00;102464.03;5004339;28;20087;-46
2023/04/16 04:21:55;;;;;;;8.80;2.75;;;;;;;11.31;72.92;102460.97;4987758;28;20030;-43
2023/04/16 04:24:20;;;;;;;9.00;2.92;;;;;;;11.16;73.57;102466.50;5000728;28;20034;-44
2023/04/16 04:26:45;;;;;;;9.25;2.90;;;;;;;11.33;73.49;102467.13;5004062;28;20634;-44
2023/04/16 04:29:11;;;;;;;10.25;3.10;;;;;;;10.92;74.00;102469.13;5000933;28;20026;-42
2023/04/16 04:31:36;;;;;;;10.27;3.03;;;;;;;11.07;74.12;102462.69;5006199;28;20038;-42
2023/04/16 04:34:01;;;;;;;8.23;3.10;;;;;;;11.07;74.36;102465.31;5005839;28;20030;-46
2023/04/16 04:36:27;;;;;;;11.15;3.30;;;;;;;11.12;73.98;102462.03;5002297;28;20033;-42
2023/04/16 04:38:52;;;;;;;11.75;2.80;;;;;;;11.12;74.11;102472.47;5005219;28;20037;-42
2023/04/16 04:41:17;;;;;;;8.10;2.67;;;;;;;11.16;74.05;102470.88;5002399;28;20511;-43
2023/04/16 04:43:42;;;;;;;8.73;2.95;;;;;;;11.03;74.08;102466.94;5004512;28;20314;-44
2023/04/16 04:46:08;;;;;;;7.63;2.88;;;;;;;10.88;74.77;102476.78;5001214;28;20038;-43
2023/04/16 04:48:33;;;;;;;10.55;2.80;;;;;;;11.05;74.76;102482.63;5004666;28;20030;-42
2023/04/16 04:50:58;;;;;;;9.35;2.30;;;;;;;10.79;75.59;102474.72;5003881;28;20505;-44
2023/04/16 04:53:24;;;;;;;7.45;2.78;;;;;;;11.02;75.13;102477.31;5000337;28;20042;-45
2023/04/16 04:55:49;;;;;;;12.00;2.60;;;;;;;11.12;74.55;102482.00;5005643;28;20054;-42
2023/04/16 04:58:15;;;;;;;8.32;2.58;;;;;;;11.17;74.53;102489.19;5004590;28;20097;-45
2023/04/16 05:00:41;;;;;;;9.70;2.63;;;;;;;10.82;75.22;102489.59;5006646;28;20057;-45
2023/04/16 05:03:10;;;;;;;9.90;2.90;;;;;;;10.72;75.87;102488.38;5002526;28;20124;-44
2023/04/16 05:05:35;;;;;;;11.68;2.80;;;;;;;10.94;75.14;102496.16;5007530;28;20052;-47
2023/04/16 05:08:00;;;;;;;8.90;2.80;;;;;;;10.88;75.28;102503.75;5009441;28;20033;-44
2023/04/16 05:10:26;;;;;;;9.68;2.95;;;;;;;10.92;74.92;102507.38;5005523;28;20129;-43
2023/04/16 05:12:52;;;;;;;8.75;3.00;;;;;;;11.06;75.20;102503.56;5006498;28;20052;-46
2023/04/16 05:15:17;;;;;;;7.72;2.80;;;;;;;10.84;75.34;102512.31;5004426;28;20501;-43
2023/04/16 05:17:42;;;;;;;10.23;3.05;;;;;;;11.13;74.28;102502.06;5008405;28;20036;-44
2023/04/16 05:20:08;;;;;;;7.85;2.85;;;;;;;10.82;75.45;102500.91;5003140;28;20042;-45
2023/04/16 05:22:34;;;;;;;9.40;3.35;;;;;;;11.04;74.68;102510.44;5006551;28;20068;-49
2023/04/16 05:24:59;;;;;;;8.00;2.97;;;;;;;11.30;74.19;102501.84;5003074;28;20034;-43
2023/04/16 05:27:25;;;;;;;7.70;3.38;;;;;;;11.31;73.64;102508.84;4999031;28;20427;-41
2023/04/16 05:29:50;;;;;;;9.85;3.22;;;;;;;11.60;72.91;102512.50;5003476;28;20080;-45
2023/04/16 05:32:15;;;;;;;9.48;3.20;;;;;;;11.77;72.02;102511.38;5000536;28;20069;-42
2023/04/16 05:34:40;;;;;;;7.47;2.90;;;;;;;11.44;73.32;102519.75;5003814;28;20049;-43
2023/04/16 05:37:06;;;;;;;8.73;2.97;;;;;;;11.35;73.79;102520.28;5000246;28;20030;-44
2023/04/16 05:39:31;;;;;;;9.82;3.63;;;;;;;11.50;73.09;102526.06;5003280;28;20034;-43
2023/04/16 05:41:56;;;;;;;10.10;3.38;;;;;;;11.51;73.00;102516.53;5003622;28;20050;-42
2023/04/16 05:44:22;;;;;;;8.02;3.22;;;;;;;11.46;73.24;102520.69;5000560;28;20088;-42
2023/04/16 05:46:47;;;;;;;8.25;3.47;;;;;;;11.36;73.56;102522.06;5005562;28;20489;-46
2023/04/16 05:49:12;;;;;;;8.93;3.67;;;;;;;11.14;74.21;102524.72;5004999;28;20079;-45
2023/04/16 05:51:38;;;;;;;10.65;3.83;;;;;;;11.38;73.35;102520.41;5008597;28;20138;-46
2023/04/16 05:54:03;;;;;;;10.48;3.72;;;;;;;11.40;72.50;102523.97;5007854;28;20030;-44
2023/04/16 05:56:28;;;;;;;8.32;3.45;;;;;;;11.48;72.68;102524.22;5004004;28;20041;-44
2023/04/16 05:58:53;;;;;;;9.85;3.65;;;;;;;11.25;74.03;102523.41;5008138;28;20096;-46
2023/04/16 06:01:20;;;;;;;9.45;3.78;;;;;;;11.01;75.08;102518.16;5005537;28;20557;-46
2023/04/16 06:03:45;;;;;;;12.02;3.83;;;;;;;11.35;73.81;102521.19;5009593;28;20447;-44
2023/04/16 06:06:10;;;;;;;8.70;3.40;;;;;;;11.46;73.09;102529.41;5006124;28;20030;-43
2023/04/16 06:08:36;;;;;;;7.93;3.50;;;;;;;11.55;73.09;102531.47;5009695;28;20079;-45
2023/04/16 06:11:02;;;;;;;7.65;3.40;;;;;;;11.23;74.20;102531.16;5009027;28;20037;-43
2023/04/16 06:13:27;;;;;;;9.10;3.60;;;;;;;11.46;73.20;102529.41;5005764;28;20504;-40
2023/04/16 06:15:52;;;;;;;11.65;3.80;;;;;;;11.57;73.45;102535.91;5009018;28;20124;-46
2023/04/16 06:18:18;;;;;;;9.00;3.60;;;;;;;11.54;73.26;102537.50;5005225;28;20036;-44
2023/04/16 06:20:43;;;;;;;8.27;3.55;;;;;;;11.33;73.68;102529.81;5007826;28;20034;-46
2023/04/16 06:23:08;;;;;;;9.63;3.80;;;;;;;11.75;73.02;102527.88;5003734;28;20029;-46
2023/04/16 06:25:33;;;;;;;7.63;3.88;;;;;;;11.64;73.23;102534.41;5006948;28;20109;-44
2023/04/16 06:27:59;;;;;;;7.07;3.88;;;;;;;11.53;73.61;102533.13;5006192;28;20044;-45
2023/04/16 06:30:24;;;;;;;9.05;4.05;;;;;;;11.49;73.32;102545.19;5003446;28;20038;-47
2023/04/16 06:32:50;;;;;;;10.80;4.43;;;;;;;11.15;74.78;102544.78;5006682;28;20136;-43
2023/04/16 06:35:15;;;;;;;9.57;4.20;;;;;;;11.20;74.66;102545.84;5005137;28;20034;-46
2023/04/16 06:37:41;;;;;;;11.85;4.45;;;;;;;10.99;76.01;102548.53;5008051;28;20045;-44
2023/04/16 06:40:06;;;;;;;9.75;4.57;;;;;;;11.03;76.08;102550.44;5005618;28;20034;-43
2023/04/16 06:42:32;;;;;;;12.48;4.38;;;;;;;11.32;74.99;102552.41;5009342;28;20030;-45
2023/04/16 06:44:57;;;;;;;9.25;4.53;;;;;;;11.62;74.09;102556.97;5008874;28;20037;-45
2023/04/16 06:47:23;;;;;;;8.15;4.55;;;;;;;11.29;75.05;102556.63;5006814;28;20381;-43
2023/04/16 06:49:49;;;;;;;7.78;4.30;;;;;;;11.58;74.39;102560.31;5009218;28;20041;-44
2023/04/16 06:52:14;;;;;;;8.38;4.40;;;;;;;11.43;75.22;102554.53;5005953;28;20030;-45
2023/04/16 06:54:39;;;;;;;10.82;4.72;;;;;;;11.67;74.59;102563.25;5008316;28;20042;-43
2023/04/16 06:57:05;;;;;;;10.82;4.65;;;;;;;11.65;74.38;102565.78;5003390;28;20500;-50
2023/04/16 06:59:30;;;;;;;9.90;4.20;;;;;;;11.64;74.53;102569.25;5007765;28;20038;-48
2023/04/16 07:01:55;;;;;;;11.20;4.32;;;;;;;11.69;74.55;102562.47;5007453;28;20324;-43
2023/04/16 07:04:21;;;;;;;8.77;4.00;;;;;;;11.18;75.70;102563.16;5003804;28;20029;-43
2023/04/16 07:06:47;;;;;;;8.55;4.20;;;;;;;11.21;76.08;102569.41;5007141;28;20161;-43
2023/04/16 07:09:12;;;;;;;8.07;3.95;;;;;;;11.40;75.60;102566.63;5002132;28;20117;-42
2023/04/16 07:11:37;;;;;;;7.80;4.10;;;;;;;11.56;74.66;102567.19;5006043;28;20042;-42
2023/04/16 07:14:03;;;;;;;9.77;4.05;;;;;;;11.47;75.55;102570.34;4988508;28;20058;-48
2023/04/16 07:16:29;;;;;;;8.60;4.38;;;;;;;11.33;75.53;102576.81;5003124;28;20069;-42
2023/04/16 07:18:54;;;;;;;8.18;4.28;;;;;;;11.57;76.06;102568.97;5005356;28;20034;-44
2023/04/16 07:21:21;;;;;;;10.48;4.30;;;;;;;11.66;75.09;102569.28;5002640;28;20053;-43
2023/04/16 07:23:46;;;;;;;8.15;4.30;;;;;;;11.27;76.41;102571.34;5007691;28;20034;-44
2023/04/16 07:26:11;;;;;;;7.57;4.22;;;;;;;11.38;75.90;102573.53;5003027;28;20037;-47
2023/04/16 07:28:37;;;;;;;7.70;3.90;;;;;;;11.45;75.63;102577.25;5004681;28;20065;-45
2023/04/16 07:31:02;;;;;;;7.90;4.00;;;;;;;11.37;75.57;102570.84;5006146;28;20479;-44
2023/04/16 07:33:27;;;;;;;8.02;3.97;;;;;;;11.69;74.61;102579.88;5002412;28;20038;-45
2023/04/16 07:35:53;;;;;;;7.93;4.10;;;;;;;11.38;75.27;102575.25;5005569;28;20475;-46
2023/04/16 07:38:18;;;;;;;9.25;4.13;;;;;;;11.62;74.98;102578.75;5000468;28;20455;-53
2023/04/16 07:40:44;;;;;;;8.13;3.97;;;;;;;11.54;75.10;102584.53;4987857;28;20476;-44
2023/04/16 07:43:09;;;;;;;6.53;4.10;;;;;;;11.58;74.97;102576.88;5001546;28;20064;-45
2023/04/16 07:45:34;;;;;;;7.38;3.70;;;;;;;11.65;74.60;102584.06;5004703;28;20053;-48
2023/04/16 07:48:00;;;;;;;7.00;3.70;;;;;;;11.82;73.84;102589.97;4986517;28;20042;-45
2023/04/16 07:50:26;;;;;;;7.15;3.90;;;;;;;11.97;72.75;102592.22;5001219;28;20037;-44
2023/04/16 07:52:51;;;;;;;8.73;3.58;;;;;;;11.75;73.38;102596.69;5004655;28;20493;-46
2023/04/16 07:55:16;;;;;;;6.57;3.63;;;;;;;11.98;72.70;102594.88;5000754;28;20112;-44
2023/04/16 07:57:41;;;;;;;12.80;4.07;;;;;;;11.98;72.87;102594.00;5004464;28;20484;-42
2023/04/16 08:00:08;;;;;;;9.55;3.80;;;;;;;11.96;73.17;102604.38;5001356;28;20041;-46
2023/04/16 08:02:33;;;;;;;8.68;4.25;;;;;;;12.00;73.00;102598.44;5004338;28;20038;-43
2023/04/16 08:04:59;;;;;;;9.55;4.53;;;;;;;11.71;73.48;102601.72;5004480;28;20056;-43
2023/04/16 08:07:24;;;;;;;9.95;4.25;;;;;;;11.64;73.78;102603.22;5001482;28;20054;-44
2023/04/16 08:09:51;;;;;;;13.45;4.80;;;;;;;11.70;74.16;102607.78;5003482;28;20030;-47
2023/04/16 08:12:17;;;;;;;12.18;4.28;;;;;;;11.84;74.28;102596.13;5000702;28;20038;-43
2023/04/16 08:14:44;;;;;;;11.10;4.50;;;;;;;11.89;73.80;102605.03;5004301;28;20124;-45
2023/04/16 08:17:10;;;;;;;11.27;4.50;;;;;;;11.68;74.51;102604.22;5000474;28;20491;-42
2023/04/16 08:19:35;;;;;;;10.95;4.40;;;;;;;11.89;73.72;102607.66;5004230;28;20046;-45
2023/04/16 08:22:00;;;;;;;10.90;4.13;;;;;;;11.30;74.77;102608.91;5003743;28;20052;-44
2023/04/16 08:24:26;;;;;;;8.60;4.03;;;;;;;11.81;73.84;102609.09;5000800;28;20033;-45
2023/04/16 08:26:51;;;;;;;10.25;3.97;;;;;;;11.89;73.22;102604.13;5004806;28;20087;-43
2023/04/16 08:29:16;;;;;;;7.57;4.10;;;;;;;11.70;72.90;102613.00;5001112;28;20121;-44
2023/04/16 08:31:42;;;;;;;8.07;4.03;;;;;;;12.19;72.05;102610.44;5003691;28;20038;-44
2023/04/16 08:34:10;;;;;;;11.88;4.22;;;;;;;12.41;71.51;102617.28;5000106;28;20107;-44
2023/04/16 08:36:35;;;;;;;8.52;4.28;;;;;;;12.10;72.42;102613.59;5003535;28;20034;-43
2023/04/16 08:39:00;;;;;;;9.20;4.10;;;;;;;12.32;72.16;102620.44;5006368;28;20511;-45
2023/04/16 08:41:29;;;;;;;10.52;4.22;;;;;;;12.19;71.64;102621.78;5004090;28;20056;-43
2023/04/16 08:43:58;;;;;;;8.45;4.28;;;;;;;12.55;70.86;102627.38;5007915;28;20037;-47
2023/04/16 08:46:25;;;;;;;8.65;4.25;;;;;;;12.11;71.35;102622.34;5004469;28;20124;-42
2023/04/16 08:48:54;;;;;;;9.85;4.55;;;;;;;12.15;71.95;102626.84;5008239;28;20022;-42
2023/04/16 08:51:21;;;;;;;11.55;4.20;;;;;;;12.25;71.73;102636.78;5003868;28;20168;-43
2023/04/16 08:54:01;;;;;;;10.23;3.78;;;;;;;12.36;71.90;102631.91;5010170;28;20118;-43
2023/04/16 08:56:27;;;;;;;7.95;4.13;;;;;;;12.44;70.86;102639.16;5005440;28;20037;-47
2023/04/16 08:58:54;;;;;;;8.52;4.20;;;;;;;12.39;71.19;102634.63;5003557;28;20455;-42
2023/04/16 09:01:20;;;;;;;9.63;3.97;;;;;;;12.39;70.60;102637.25;5002124;28;20109;-47
2023/04/16 09:03:48;;;;;;;15.05;3.80;;;;;;;12.52;70.51;102642.06;5008898;28;20404;-46
2023/04/16 09:06:15;;;;;;;12.75;4.50;;;;;;;12.16;71.56;102645.19;5005687;28;20127;-43
2023/04/16 09:08:48;;;;;;;10.50;4.10;;;;;;;12.63;70.46;102648.53;5010893;22;20097;-79
2023/04/16 09:11:16;;;;;;;10.40;4.05;;;;;;;12.61;70.80;102642.38;4983336;28;20053;-79
2023/04/16 09:13:42;;;;;;;9.57;4.30;;;;;;;12.19;71.93;102633.97;4989529;28;20471;-80
2023/04/16 09:16:09;;;;;;;11.63;4.05;;;;;;;12.49;71.34;102642.84;5000659;28;20033;-79
2023/04/16 09:18:35;;;;;;;13.40;4.60;;;;;;;12.15;71.78;102651.25;4988066;28;20053;-80
2023/04/16 09:21:08;;;;;;;16.65;5.20;;;;;;;11.73;73.35;102648.00;4983071;23;20038;-77
2023/04/16 09:23:34;;;;;;;12.80;4.70;;;;;;;12.25;71.85;102647.25;4974617;28;20507;-75
2023/04/16 09:26:03;;;;;;;12.20;4.95;;;;;;;12.43;71.04;102645.28;4979884;28;20114;-79
2023/04/16 09:28:46;;;;;;;11.30;4.85;;;;;;;12.67;70.32;102655.66;4975354;28;20460;-78
2023/04/16 09:31:17;;;;;;;10.63;4.25;;;;;;;12.44;70.55;102649.63;4944394;28;20034;-78
2023/04/16 09:34:05;;;;;;;14.15;5.07;;;;;;;12.64;70.32;102658.16;4961644;28;20518;-79
2023/04/16 09:36:35;;;;;;;14.43;4.85;;;;;;;12.36;70.56;102650.22;4956854;28;20042;-77
2023/04/16 09:39:01;;;;;;;8.35;4.30;;;;;;;12.68;69.64;102664.41;4964100;28;20542;-77
2023/04/16 09:41:29;;;;;;;11.70;5.00;;;;;;;12.81;69.81;102672.69;4956650;28;20376;-76
2023/04/16 09:43:58;;;;;;;13.35;4.65;;;;;;;12.21;70.89;102671.50;4960214;28;20034;-76
2023/04/16 09:46:40;;;;;;;12.60;4.70;;;;;;;12.38;70.92;102670.34;4961232;28;20478;-76
2023/04/16 09:49:32;;;;;;;15.98;5.25;;;;;;;12.45;70.88;102674.06;4938410;28;20560;-77
2023/04/16 09:51:58;;;;;;;13.00;4.72;;;;;;;12.58;69.93;102668.44;4951165;28;20085;-77
2023/04/16 09:54:25;;;;;;;12.93;4.70;;;;;;;12.58;69.79;102671.03;4934696;28;21741;-76
2023/04/16 09:56:56;;;;;;;9.80;5.05;;;;;;;12.43;70.84;102667.91;4943640;28;20035;-77
2023/04/16 09:59:23;;;;;;;12.75;4.93;;;;;;;12.58;69.90;102668.44;4942444;28;20047;-77
2023/04/16 10:01:49;;;;;;;9.43;5.35;;;;;;;12.50;70.52;102675.16;4930597;28;20359;-78
2023/04/16 10:04:21;;;;;;;15.15;6.20;;;;;;;12.25;70.35;102676.03;4965830;28;20122;-78
2023/04/16 10:07:04;;;;;;;13.60;5.60;;;;;;;12.41;70.11;102677.44;4960644;28;20496;-76
2023/04/16 10:09:37;;;;;;;12.82;5.93;;;;;;;12.63;70.25;102681.66;4956764;28;20126;-76
2023/04/16 10:12:05;;;;;;;14.00;5.32;;;;;;;12.26;72.03;102680.38;4941991;28;20499;-76
2023/04/16 10:14:34;;;;;;;11.65;5.15;;;;;;;12.87;69.79;102682.47;4956129;28;20042;-78
2023/04/16 10:16:59;;;;;;;10.00;5.28;;;;;;;12.97;69.00;102687.19;4936303;28;20039;-76
2023/04/16 10:19:26;;;;;;;12.60;5.28;;;;;;;13.02;69.13;102688.22;4938444;28;20133;-77
2023/04/16 10:21:58;;;;;;;13.57;5.40;;;;;;;12.81;69.90;102688.38;4943906;28;20043;-77
2023/04/16 10:24:28;;;;;;;10.95;5.00;;;;;;;12.86;69.99;102686.84;4945533;28;20042;-77
2023/04/16 10:26:54;;;;;;;10.38;5.57;;;;;;;12.40;70.93;102693.97;4961152;28;20023;-77
2023/04/16 10:29:24;;;;;;;12.77;5.45;;;;;;;12.04;72.19;102694.44;4958359;28;20252;-76
2023/04/16 10:31:50;;;;;;;13.23;5.18;;;;;;;12.54;70.04;102693.59;4938582;28;20490;-77
2023/04/16 10:34:20;;;;;;;10.38;5.13;;;;;;;12.69;69.19;102698.44;4959279;28;20053;-77
2023/04/16 10:36:55;;;;;;;11.50;5.68;;;;;;;12.79;68.98;102700.56;4971810;28;20038;-76
2023/04/16 10:39:21;;;;;;;;;;;;;;;12.47;70.35;102701.19;4963734;28;20042;-76
2023/04/16 10:41:47;;;;;;;12.75;5.40;;;;;;;12.63;69.53;102702.59;4965271;28;19910;-77
2023/04/16 10:44:15;;;;;;;10.13;5.43;;;;;;;12.90;68.70;102703.53;4960122;28;20146;-76
2023/04/16 10:46:53;;;;;;;12.15;5.47;;;;;;;12.54;70.03;102706.69;4946465;28;20039;-77
2023/04/16 10:49:25;;;;;;;12.02;5.30;;;;;;;12.31;70.40;102709.34;4960928;28;20093;-77
2023/04/16 10:51:59;;;;;;;11.80;5.47;;;;;;;12.69;69.88;102701.06;4965206;28;20093;-77
2023/04/16 10:54:33;;;;;;;9.90;5.20;;;;;;;12.20;70.93;102708.94;4962505;28;20083;-78
2023/04/16 10:57:02;;;;;;;;;;;;;;;12.18;70.87;102700.16;4948098;28;20484;-76
2023/04/16 10:59:32;;;;;;;16.42;5.38;;;;;;;12.74;69.85;102702.13;4958568;28;19922;-76
2023/04/16 11:02:00;;;;;;;12.27;5.20;;;;;;;12.50;70.18;102702.16;4968192;28;20067;-77
2023/04/16 11:04:36;;;;;;;13.00;5.30;;;;;;;12.64;69.94;102699.13;4943825;28;20046;-75
2023/04/16 11:07:14;;;;;;;13.63;5.28;;;;;;;12.69;70.10;102697.56;4963799;28;20582;-76
2023/04/16 11:09:46;;;;;;;11.05;5.10;;;;;;;12.75;69.58;102705.63;4970161;28;20140;-76
2023/04/16 11:12:45;;;;;;;9.35;5.13;;;;;;;12.27;71.25;102703.09;4946426;28;20495;-77
2023/04/16 11:15:11;;;;;;;11.27;4.90;;;;;;;12.52;70.45;102700.50;4962752;28;20399;-76
2023/04/16 11:17:38;;;;;;;11.98;5.18;;;;;;;12.71;70.23;102707.25;4966659;28;20034;-75
2023/04/16 11:20:23;;;;;;;13.30;4.68;;;;;;;13.33;68.05;102703.19;4962137;28;20038;-78